sensor_id;sensor_type;location;lat;lon;timestamp;P1;durP1;ratioP1;P2;durP2;ratioP2
39518;SDS011;25200;53.394;10.414;2023-11-19T00:00:36;10.80;;;5.25;;
39518;SDS011;25200;53.394;10.414;2023-11-19T00:03:02;9.50;;;5.00;;
39518;SDS011;25200;53.394;10.414;2023-11-19T00:05:28;9.57;;;4.72;;
39518;SDS011;25200;53.394;10.414;2023-11-19T00:07:54;9.75;;;4.35;;
39518;SDS011;25200;53.394;10.414;2023-11-19T00:10:19;9.98;;;4.47;;
39518;SDS011;25200;53.394;10.414;2023-11-19T00:12:46;7.95;;;4.28;;
39518;SDS011;25200;53.394;10.414;2023-11-19T00:15:13;9.07;;;4.53;;
39518;SDS011;25200;53.394;10.414;2023-11-19T00:17:39;6.68;;;3.75;;
39518;SDS011;25200;53.394;10.414;2023-11-19T00:20:07;7.55;;;4.00;;
39518;SDS011;25200;53.394;10.414;2023-11-19T00:22:33;9.20;;;4.25;;
39518;SDS011;25200;53.394;10.414;2023-11-19T00:24:59;7.18;;;4.05;;
39518;SDS011;25200;53.394;10.414;2023-11-19T00:27:25;7.63;;;3.75;;
39518;SDS011;25200;53.394;10.414;2023-11-19T00:29:51;6.93;;;3.53;;
39518;SDS011;25200;53.394;10.414;2023-11-19T00:32:16;6.72;;;3.50;;
39518;SDS011;25200;53.394;10.414;2023-11-19T00:34:45;6.63;;;3.42;;
39518;SDS011;25200;53.394;10.414;2023-11-19T00:37:12;6.80;;;3.13;;
39518;SDS011;25200;53.394;10.414;2023-11-19T00:39:38;6.85;;;2.78;;
39518;SDS011;25200;53.394;10.414;2023-11-19T00:42:04;7.32;;;2.65;;
39518;SDS011;25200;53.394;10.414;2023-11-19T00:44:30;5.88;;;2.53;;
39518;SDS011;25200;53.394;10.414;2023-11-19T00:46:56;4.90;;;2.50;;
39518;SDS011;25200;53.394;10.414;2023-11-19T00:49:22;5.95;;;2.70;;
39518;SDS011;25200;53.394;10.414;2023-11-19T00:51:47;5.68;;;2.78;;
39518;SDS011;25200;53.394;10.414;2023-11-19T00:54:14;5.97;;;2.90;;
39518;SDS011;25200;53.394;10.414;2023-11-19T00:56:40;5.53;;;2.58;;
39518;SDS011;25200;53.394;10.414;2023-11-19T00:59:05;5.60;;;2.53;;
39518;SDS011;25200;53.394;10.414;2023-11-19T01:01:31;5.63;;;2.47;;
39518;SDS011;25200;53.394;10.414;2023-11-19T01:03:57;5.68;;;2.70;;
39518;SDS011;25200;53.394;10.414;2023-11-19T01:06:31;6.88;;;2.67;;
39518;SDS011;25200;53.394;10.414;2023-11-19T01:08:57;4.95;;;2.50;;
39518;SDS011;25200;53.394;10.414;2023-11-19T01:11:23;5.32;;;2.38;;
39518;SDS011;25200;53.394;10.414;2023-11-19T01:13:50;5.07;;;2.55;;
39518;SDS011;25200;53.394;10.414;2023-11-19T01:16:16;5.10;;;2.58;;
39518;SDS011;25200;53.394;10.414;2023-11-19T01:18:42;4.55;;;2.35;;
39518;SDS011;25200;53.394;10.414;2023-11-19T01:21:08;5.03;;;2.28;;
39518;SDS011;25200;53.394;10.414;2023-11-19T01:23:34;4.15;;;2.10;;
39518;SDS011;25200;53.394;10.414;2023-11-19T01:26:00;5.85;;;2.47;;
39518;SDS011;25200;53.394;10.414;2023-11-19T01:28:25;4.68;;;2.10;;
39518;SDS011;25200;53.394;10.414;2023-11-19T01:30:51;4.18;;;1.95;;
39518;SDS011;25200;53.394;10.414;2023-11-19T01:33:17;4.20;;;2.03;;
39518;SDS011;25200;53.394;10.414;2023-11-19T01:35:43;4.43;;;2.10;;
39518;SDS011;25200;53.394;10.414;2023-11-19T01:38:09;4.10;;;2.00;;
39518;SDS011;25200;53.394;10.414;2023-11-19T01:40:34;4.60;;;2.00;;
39518;SDS011;25200;53.394;10.414;2023-11-19T01:43:03;5.88;;;2.20;;
39518;SDS011;25200;53.394;10.414;2023-11-19T01:45:29;7.22;;;2.20;;
39518;SDS011;25200;53.394;10.414;2023-11-19T01:47:59;5.13;;;2.38;;
39518;SDS011;25200;53.394;10.414;2023-11-19T01:50:30;5.30;;;2.20;;
39518;SDS011;25200;53.394;10.414;2023-11-19T01:52:58;4.03;;;2.00;;
39518;SDS011;25200;53.394;10.414;2023-11-19T01:55:24;3.72;;;1.80;;
39518;SDS011;25200;53.394;10.414;2023-11-19T01:57:53;7.32;;;2.10;;
39518;SDS011;25200;53.394;10.414;2023-11-19T02:00:20;4.68;;;1.90;;
39518;SDS011;25200;53.394;10.414;2023-11-19T02:02:46;4.68;;;2.20;;
39518;SDS011;25200;53.394;10.414;2023-11-19T02:05:13;4.15;;;2.00;;
39518;SDS011;25200;53.394;10.414;2023-11-19T02:07:39;4.10;;;1.90;;
39518;SDS011;25200;53.394;10.414;2023-11-19T02:10:05;3.63;;;1.70;;
39518;SDS011;25200;53.394;10.414;2023-11-19T02:12:32;3.92;;;1.80;;
39518;SDS011;25200;53.394;10.414;2023-11-19T02:15:01;3.80;;;1.83;;
39518;SDS011;25200;53.394;10.414;2023-11-19T02:17:28;2.72;;;1.48;;
39518;SDS011;25200;53.394;10.414;2023-11-19T02:20:03;3.83;;;1.80;;
39518;SDS011;25200;53.394;10.414;2023-11-19T02:22:34;2.50;;;1.45;;
39518;SDS011;25200;53.394;10.414;2023-11-19T02:25:00;3.05;;;1.42;;
39518;SDS011;25200;53.394;10.414;2023-11-19T02:27:44;3.92;;;1.73;;
39518;SDS011;25200;53.394;10.414;2023-11-19T02:30:13;4.25;;;1.60;;
39518;SDS011;25200;53.394;10.414;2023-11-19T02:32:40;3.72;;;1.63;;
39518;SDS011;25200;53.394;10.414;2023-11-19T02:35:07;2.45;;;1.30;;
39518;SDS011;25200;53.394;10.414;2023-11-19T02:37:33;4.20;;;1.70;;
39518;SDS011;25200;53.394;10.414;2023-11-19T02:39:59;3.72;;;1.67;;
39518;SDS011;25200;53.394;10.414;2023-11-19T02:42:27;3.92;;;1.70;;
39518;SDS011;25200;53.394;10.414;2023-11-19T02:44:53;3.55;;;1.73;;
39518;SDS011;25200;53.394;10.414;2023-11-19T02:47:19;2.90;;;1.55;;
39518;SDS011;25200;53.394;10.414;2023-11-19T02:49:46;3.55;;;1.60;;
39518;SDS011;25200;53.394;10.414;2023-11-19T02:52:13;3.25;;;1.60;;
39518;SDS011;25200;53.394;10.414;2023-11-19T02:54:39;3.13;;;1.67;;
39518;SDS011;25200;53.394;10.414;2023-11-19T02:57:06;2.25;;;1.08;;
39518;SDS011;25200;53.394;10.414;2023-11-19T02:59:35;2.90;;;1.27;;
39518;SDS011;25200;53.394;10.414;2023-11-19T03:02:06;3.63;;;1.70;;
39518;SDS011;25200;53.394;10.414;2023-11-19T03:04:36;4.05;;;1.65;;
39518;SDS011;25200;53.394;10.414;2023-11-19T03:07:05;3.13;;;1.55;;
39518;SDS011;25200;53.394;10.414;2023-11-19T03:09:32;3.28;;;1.70;;
39518;SDS011;25200;53.394;10.414;2023-11-19T03:11:59;3.33;;;1.48;;
39518;SDS011;25200;53.394;10.414;2023-11-19T03:14:25;3.45;;;1.60;;
39518;SDS011;25200;53.394;10.414;2023-11-19T03:16:51;3.22;;;1.52;;
39518;SDS011;25200;53.394;10.414;2023-11-19T03:19:17;3.38;;;1.70;;
39518;SDS011;25200;53.394;10.414;2023-11-19T03:21:42;2.83;;;1.33;;
39518;SDS011;25200;53.394;10.414;2023-11-19T03:24:09;3.55;;;1.70;;
39518;SDS011;25200;53.394;10.414;2023-11-19T03:26:35;3.10;;;1.63;;
39518;SDS011;25200;53.394;10.414;2023-11-19T03:29:02;4.43;;;1.88;;
39518;SDS011;25200;53.394;10.414;2023-11-19T03:31:28;3.75;;;1.45;;
39518;SDS011;25200;53.394;10.414;2023-11-19T03:33:53;4.80;;;1.98;;
39518;SDS011;25200;53.394;10.414;2023-11-19T03:36:19;4.15;;;1.55;;
39518;SDS011;25200;53.394;10.414;2023-11-19T03:38:45;3.75;;;1.60;;
39518;SDS011;25200;53.394;10.414;2023-11-19T03:41:12;4.70;;;2.05;;
39518;SDS011;25200;53.394;10.414;2023-11-19T03:43:38;4.05;;;1.85;;
39518;SDS011;25200;53.394;10.414;2023-11-19T03:46:04;5.95;;;1.75;;
39518;SDS011;25200;53.394;10.414;2023-11-19T03:48:40;3.15;;;1.58;;
39518;SDS011;25200;53.394;10.414;2023-11-19T03:51:06;4.10;;;1.88;;
39518;SDS011;25200;53.394;10.414;2023-11-19T03:53:31;4.10;;;1.90;;
39518;SDS011;25200;53.394;10.414;2023-11-19T03:55:57;3.78;;;1.85;;
39518;SDS011;25200;53.394;10.414;2023-11-19T03:58:23;4.25;;;2.13;;
39518;SDS011;25200;53.394;10.414;2023-11-19T04:00:49;4.30;;;1.98;;
39518;SDS011;25200;53.394;10.414;2023-11-19T04:03:15;4.20;;;2.10;;
39518;SDS011;25200;53.394;10.414;2023-11-19T04:05:40;4.63;;;1.98;;
39518;SDS011;25200;53.394;10.414;2023-11-19T04:08:06;4.20;;;1.90;;
39518;SDS011;25200;53.394;10.414;2023-11-19T04:10:32;3.60;;;1.85;;
39518;SDS011;25200;53.394;10.414;2023-11-19T04:12:57;3.75;;;1.98;;
39518;SDS011;25200;53.394;10.414;2023-11-19T04:15:23;4.05;;;2.10;;
39518;SDS011;25200;53.394;10.414;2023-11-19T04:17:49;3.95;;;1.90;;
39518;SDS011;25200;53.394;10.414;2023-11-19T04:20:14;4.68;;;1.90;;
39518;SDS011;25200;53.394;10.414;2023-11-19T04:22:40;4.68;;;2.03;;
39518;SDS011;25200;53.394;10.414;2023-11-19T04:25:06;4.40;;;1.80;;
39518;SDS011;25200;53.394;10.414;2023-11-19T04:27:32;4.60;;;2.15;;
39518;SDS011;25200;53.394;10.414;2023-11-19T04:29:57;5.05;;;1.92;;
39518;SDS011;25200;53.394;10.414;2023-11-19T04:32:23;4.47;;;2.10;;
39518;SDS011;25200;53.394;10.414;2023-11-19T04:34:50;4.43;;;2.03;;
39518;SDS011;25200;53.394;10.414;2023-11-19T04:37:16;4.85;;;2.30;;
39518;SDS011;25200;53.394;10.414;2023-11-19T04:39:43;4.45;;;2.17;;
39518;SDS011;25200;53.394;10.414;2023-11-19T04:42:10;4.22;;;2.03;;
39518;SDS011;25200;53.394;10.414;2023-11-19T04:44:35;4.43;;;2.13;;
39518;SDS011;25200;53.394;10.414;2023-11-19T04:47:01;8.98;;;2.70;;
39518;SDS011;25200;53.394;10.414;2023-11-19T04:49:27;5.10;;;2.47;;
39518;SDS011;25200;53.394;10.414;2023-11-19T04:51:52;5.90;;;2.28;;
39518;SDS011;25200;53.394;10.414;2023-11-19T04:54:18;5.35;;;2.55;;
39518;SDS011;25200;53.394;10.414;2023-11-19T04:56:47;4.85;;;2.33;;
39518;SDS011;25200;53.394;10.414;2023-11-19T04:59:12;4.82;;;2.50;;
39518;SDS011;25200;53.394;10.414;2023-11-19T05:01:38;6.22;;;2.45;;
39518;SDS011;25200;53.394;10.414;2023-11-19T05:04:04;4.72;;;2.15;;
39518;SDS011;25200;53.394;10.414;2023-11-19T05:06:29;7.53;;;2.47;;
39518;SDS011;25200;53.394;10.414;2023-11-19T05:08:56;6.00;;;2.17;;
39518;SDS011;25200;53.394;10.414;2023-11-19T05:11:34;4.45;;;2.25;;
39518;SDS011;25200;53.394;10.414;2023-11-19T05:14:02;5.25;;;2.47;;
39518;SDS011;25200;53.394;10.414;2023-11-19T05:16:29;4.18;;;1.90;;
39518;SDS011;25200;53.394;10.414;2023-11-19T05:18:54;5.03;;;2.50;;
39518;SDS011;25200;53.394;10.414;2023-11-19T05:21:20;5.40;;;3.28;;
39518;SDS011;25200;53.394;10.414;2023-11-19T05:23:46;4.82;;;2.70;;
39518;SDS011;25200;53.394;10.414;2023-11-19T05:26:21;4.63;;;2.50;;
39518;SDS011;25200;53.394;10.414;2023-11-19T05:28:48;7.22;;;3.08;;
39518;SDS011;25200;53.394;10.414;2023-11-19T05:31:14;6.95;;;3.28;;
39518;SDS011;25200;53.394;10.414;2023-11-19T05:33:41;7.30;;;3.20;;
39518;SDS011;25200;53.394;10.414;2023-11-19T05:36:06;8.38;;;3.60;;
39518;SDS011;25200;53.394;10.414;2023-11-19T05:38:33;9.30;;;3.75;;
39518;SDS011;25200;53.394;10.414;2023-11-19T05:41:00;7.40;;;3.85;;
39518;SDS011;25200;53.394;10.414;2023-11-19T05:43:25;6.90;;;3.33;;
39518;SDS011;25200;53.394;10.414;2023-11-19T05:45:51;5.82;;;3.13;;
39518;SDS011;25200;53.394;10.414;2023-11-19T05:48:16;11.35;;;3.95;;
39518;SDS011;25200;53.394;10.414;2023-11-19T05:50:42;8.00;;;4.38;;
39518;SDS011;25200;53.394;10.414;2023-11-19T05:53:09;8.57;;;3.85;;
39518;SDS011;25200;53.394;10.414;2023-11-19T05:55:36;8.00;;;4.30;;
39518;SDS011;25200;53.394;10.414;2023-11-19T05:58:10;8.75;;;4.32;;
39518;SDS011;25200;53.394;10.414;2023-11-19T06:00:37;8.85;;;4.47;;
39518;SDS011;25200;53.394;10.414;2023-11-19T06:03:09;11.57;;;4.68;;
39518;SDS011;25200;53.394;10.414;2023-11-19T06:05:35;7.68;;;4.20;;
39518;SDS011;25200;53.394;10.414;2023-11-19T06:08:00;12.85;;;5.82;;
39518;SDS011;25200;53.394;10.414;2023-11-19T06:10:26;17.40;;;5.13;;
39518;SDS011;25200;53.394;10.414;2023-11-19T06:12:57;9.02;;;4.45;;
39518;SDS011;25200;53.394;10.414;2023-11-19T06:15:24;12.48;;;5.63;;
39518;SDS011;25200;53.394;10.414;2023-11-19T06:17:53;13.50;;;5.88;;
39518;SDS011;25200;53.394;10.414;2023-11-19T06:20:20;13.00;;;6.63;;
39518;SDS011;25200;53.394;10.414;2023-11-19T06:22:46;17.15;;;7.78;;
39518;SDS011;25200;53.394;10.414;2023-11-19T06:25:12;19.35;;;8.10;;
39518;SDS011;25200;53.394;10.414;2023-11-19T06:27:40;13.13;;;6.40;;
39518;SDS011;25200;53.394;10.414;2023-11-19T06:30:06;17.50;;;7.65;;
39518;SDS011;25200;53.394;10.414;2023-11-19T06:32:33;22.45;;;8.68;;
39518;SDS011;25200;53.394;10.414;2023-11-19T06:34:59;15.68;;;7.60;;
39518;SDS011;25200;53.394;10.414;2023-11-19T06:37:25;16.67;;;7.18;;
39518;SDS011;25200;53.394;10.414;2023-11-19T06:39:51;16.38;;;6.65;;
39518;SDS011;25200;53.394;10.414;2023-11-19T06:42:17;20.05;;;8.18;;
39518;SDS011;25200;53.394;10.414;2023-11-19T06:44:42;14.00;;;6.43;;
39518;SDS011;25200;53.394;10.414;2023-11-19T06:47:08;24.45;;;8.07;;
39518;SDS011;25200;53.394;10.414;2023-11-19T06:49:33;14.75;;;6.65;;
39518;SDS011;25200;53.394;10.414;2023-11-19T06:51:59;25.35;;;8.73;;
39518;SDS011;25200;53.394;10.414;2023-11-19T06:54:25;20.70;;;8.57;;
39518;SDS011;25200;53.394;10.414;2023-11-19T06:56:50;18.42;;;8.48;;
39518;SDS011;25200;53.394;10.414;2023-11-19T06:59:16;19.48;;;8.63;;
39518;SDS011;25200;53.394;10.414;2023-11-19T07:01:41;19.77;;;7.68;;
39518;SDS011;25200;53.394;10.414;2023-11-19T07:04:10;26.00;;;8.68;;
39518;SDS011;25200;53.394;10.414;2023-11-19T07:06:39;19.65;;;8.50;;
39518;SDS011;25200;53.394;10.414;2023-11-19T07:09:08;21.67;;;8.55;;
39518;SDS011;25200;53.394;10.414;2023-11-19T07:11:40;36.28;;;9.55;;
39518;SDS011;25200;53.394;10.414;2023-11-19T07:14:07;38.50;;;8.80;;
39518;SDS011;25200;53.394;10.414;2023-11-19T07:16:33;43.38;;;10.57;;
39518;SDS011;25200;53.394;10.414;2023-11-19T07:19:02;28.27;;;10.13;;
39518;SDS011;25200;53.394;10.414;2023-11-19T07:21:28;33.65;;;10.98;;
39518;SDS011;25200;53.394;10.414;2023-11-19T07:23:55;47.70;;;11.00;;
39518;SDS011;25200;53.394;10.414;2023-11-19T07:26:21;41.22;;;10.52;;
39518;SDS011;25200;53.394;10.414;2023-11-19T07:28:47;48.42;;;11.80;;
39518;SDS011;25200;53.394;10.414;2023-11-19T07:31:13;46.38;;;10.75;;
39518;SDS011;25200;53.394;10.414;2023-11-19T07:33:39;39.53;;;11.77;;
39518;SDS011;25200;53.394;10.414;2023-11-19T07:36:08;49.80;;;11.93;;
39518;SDS011;25200;53.394;10.414;2023-11-19T07:38:34;48.40;;;11.88;;
39518;SDS011;25200;53.394;10.414;2023-11-19T07:40:59;56.78;;;13.05;;
39518;SDS011;25200;53.394;10.414;2023-11-19T07:43:25;43.50;;;11.57;;
39518;SDS011;25200;53.394;10.414;2023-11-19T07:45:51;50.80;;;12.00;;
39518;SDS011;25200;53.394;10.414;2023-11-19T07:48:17;44.17;;;10.57;;
39518;SDS011;25200;53.394;10.414;2023-11-19T07:50:47;51.08;;;12.20;;
39518;SDS011;25200;53.394;10.414;2023-11-19T07:53:17;56.85;;;12.40;;
39518;SDS011;25200;53.394;10.414;2023-11-19T07:55:43;49.28;;;11.93;;
39518;SDS011;25200;53.394;10.414;2023-11-19T07:58:09;46.92;;;11.40;;
39518;SDS011;25200;53.394;10.414;2023-11-19T08:00:37;61.63;;;12.60;;
39518;SDS011;25200;53.394;10.414;2023-11-19T08:03:03;48.88;;;12.13;;
39518;SDS011;25200;53.394;10.414;2023-11-19T08:05:30;51.83;;;11.77;;
39518;SDS011;25200;53.394;10.414;2023-11-19T08:07:56;54.97;;;10.88;;
39518;SDS011;25200;53.394;10.414;2023-11-19T08:10:22;49.28;;;10.38;;
39518;SDS011;25200;53.394;10.414;2023-11-19T08:12:47;51.20;;;10.82;;
39518;SDS011;25200;53.394;10.414;2023-11-19T08:15:13;50.03;;;11.73;;
39518;SDS011;25200;53.394;10.414;2023-11-19T08:17:40;58.80;;;10.93;;
39518;SDS011;25200;53.394;10.414;2023-11-19T08:20:05;45.40;;;10.07;;
39518;SDS011;25200;53.394;10.414;2023-11-19T08:22:35;45.20;;;10.15;;
39518;SDS011;25200;53.394;10.414;2023-11-19T08:25:04;52.03;;;9.57;;
39518;SDS011;25200;53.394;10.414;2023-11-19T08:27:30;42.33;;;9.38;;
39518;SDS011;25200;53.394;10.414;2023-11-19T08:29:56;54.33;;;9.95;;
39518;SDS011;25200;53.394;10.414;2023-11-19T08:32:22;49.70;;;9.27;;
39518;SDS011;25200;53.394;10.414;2023-11-19T08:34:51;52.08;;;8.80;;
39518;SDS011;25200;53.394;10.414;2023-11-19T08:37:18;49.22;;;8.55;;
39518;SDS011;25200;53.394;10.414;2023-11-19T08:39:49;46.78;;;7.95;;
39518;SDS011;25200;53.394;10.414;2023-11-19T08:42:18;47.58;;;8.45;;
39518;SDS011;25200;53.394;10.414;2023-11-19T08:44:44;52.38;;;8.13;;
39518;SDS011;25200;53.394;10.414;2023-11-19T08:47:15;45.28;;;7.97;;
39518;SDS011;25200;53.394;10.414;2023-11-19T08:49:43;53.00;;;9.52;;
39518;SDS011;25200;53.394;10.414;2023-11-19T08:52:09;38.45;;;7.22;;
39518;SDS011;25200;53.394;10.414;2023-11-19T08:54:35;55.65;;;7.85;;
39518;SDS011;25200;53.394;10.414;2023-11-19T08:57:02;46.95;;;7.28;;
39518;SDS011;25200;53.394;10.414;2023-11-19T08:59:28;40.75;;;7.20;;
39518;SDS011;25200;53.394;10.414;2023-11-19T09:01:54;49.70;;;7.13;;
39518;SDS011;25200;53.394;10.414;2023-11-19T09:04:20;47.22;;;6.00;;
39518;SDS011;25200;53.394;10.414;2023-11-19T09:06:48;44.20;;;6.45;;
39518;SDS011;25200;53.394;10.414;2023-11-19T09:09:14;39.95;;;6.40;;
39518;SDS011;25200;53.394;10.414;2023-11-19T09:11:40;46.47;;;6.90;;
39518;SDS011;25200;53.394;10.414;2023-11-19T09:14:07;39.03;;;6.30;;
39518;SDS011;25200;53.394;10.414;2023-11-19T09:16:33;43.88;;;6.75;;
39518;SDS011;25200;53.394;10.414;2023-11-19T09:18:59;41.50;;;6.43;;
39518;SDS011;25200;53.394;10.414;2023-11-19T09:21:28;44.45;;;6.55;;
39518;SDS011;25200;53.394;10.414;2023-11-19T09:23:57;51.97;;;7.65;;
39518;SDS011;25200;53.394;10.414;2023-11-19T09:26:23;48.20;;;7.22;;
39518;SDS011;25200;53.394;10.414;2023-11-19T09:28:49;65.65;;;8.65;;
39518;SDS011;25200;53.394;10.414;2023-11-19T09:31:15;58.50;;;8.95;;
39518;SDS011;25200;53.394;10.414;2023-11-19T09:33:41;56.10;;;8.27;;
39518;SDS011;25200;53.394;10.414;2023-11-19T09:36:08;53.42;;;7.75;;
39518;SDS011;25200;53.394;10.414;2023-11-19T09:38:34;65.85;;;7.90;;
39518;SDS011;25200;53.394;10.414;2023-11-19T09:41:06;48.38;;;7.68;;
39518;SDS011;25200;53.394;10.414;2023-11-19T09:43:37;60.70;;;7.38;;
39518;SDS011;25200;53.394;10.414;2023-11-19T09:46:07;66.28;;;7.45;;
39518;SDS011;25200;53.394;10.414;2023-11-19T09:48:38;60.88;;;8.18;;
39518;SDS011;25200;53.394;10.414;2023-11-19T09:51:10;61.00;;;8.40;;
39518;SDS011;25200;53.394;10.414;2023-11-19T09:53:37;53.97;;;6.72;;
39518;SDS011;25200;53.394;10.414;2023-11-19T09:56:04;64.70;;;6.93;;
39518;SDS011;25200;53.394;10.414;2023-11-19T09:58:31;58.25;;;8.35;;
39518;SDS011;25200;53.394;10.414;2023-11-19T10:00:57;60.50;;;7.32;;
39518;SDS011;25200;53.394;10.414;2023-11-19T10:03:24;61.47;;;7.88;;
39518;SDS011;25200;53.394;10.414;2023-11-19T10:05:57;70.78;;;7.47;;
39518;SDS011;25200;53.394;10.414;2023-11-19T10:08:24;49.20;;;8.15;;
39518;SDS011;25200;53.394;10.414;2023-11-19T10:10:49;54.03;;;7.15;;
39518;SDS011;25200;53.394;10.414;2023-11-19T10:13:17;45.67;;;6.75;;
39518;SDS011;25200;53.394;10.414;2023-11-19T10:15:43;57.00;;;7.28;;
39518;SDS011;25200;53.394;10.414;2023-11-19T10:18:09;60.22;;;8.05;;
39518;SDS011;25200;53.394;10.414;2023-11-19T10:20:35;54.58;;;6.18;;
39518;SDS011;25200;53.394;10.414;2023-11-19T10:23:02;64.72;;;8.23;;
39518;SDS011;25200;53.394;10.414;2023-11-19T10:25:28;45.63;;;6.88;;
39518;SDS011;25200;53.394;10.414;2023-11-19T10:27:55;51.28;;;7.00;;
39518;SDS011;25200;53.394;10.414;2023-11-19T10:30:22;41.33;;;7.03;;
39518;SDS011;25200;53.394;10.414;2023-11-19T10:33:08;47.05;;;6.55;;
39518;SDS011;25200;53.394;10.414;2023-11-19T10:35:36;53.63;;;6.00;;
39518;SDS011;25200;53.394;10.414;2023-11-19T10:38:17;41.58;;;5.38;;
39518;SDS011;25200;53.394;10.414;2023-11-19T10:40:43;40.08;;;5.60;;
39518;SDS011;25200;53.394;10.414;2023-11-19T10:43:09;53.55;;;6.43;;
39518;SDS011;25200;53.394;10.414;2023-11-19T10:45:38;53.50;;;6.07;;
39518;SDS011;25200;53.394;10.414;2023-11-19T10:48:04;54.53;;;5.72;;
39518;SDS011;25200;53.394;10.414;2023-11-19T10:50:32;52.58;;;5.68;;
39518;SDS011;25200;53.394;10.414;2023-11-19T10:53:02;52.38;;;6.10;;
39518;SDS011;25200;53.394;10.414;2023-11-19T10:55:29;54.13;;;5.75;;
39518;SDS011;25200;53.394;10.414;2023-11-19T10:58:00;42.20;;;5.65;;
39518;SDS011;25200;53.394;10.414;2023-11-19T11:03:19;41.22;;;4.43;;
39518;SDS011;25200;53.394;10.414;2023-11-19T11:05:50;42.17;;;6.10;;
39518;SDS011;25200;53.394;10.414;2023-11-19T11:08:17;57.15;;;5.93;;
39518;SDS011;25200;53.394;10.414;2023-11-19T11:10:45;45.55;;;5.43;;
39518;SDS011;25200;53.394;10.414;2023-11-19T11:13:17;44.00;;;5.63;;
39518;SDS011;25200;53.394;10.414;2023-11-19T11:15:47;42.90;;;5.18;;
39518;SDS011;25200;53.394;10.414;2023-11-19T11:18:14;41.03;;;5.50;;
39518;SDS011;25200;53.394;10.414;2023-11-19T11:20:40;42.08;;;5.28;;
39518;SDS011;25200;53.394;10.414;2023-11-19T11:23:11;46.92;;;5.03;;
39518;SDS011;25200;53.394;10.414;2023-11-19T11:29:04;47.05;;;5.03;;
39518;SDS011;25200;53.394;10.414;2023-11-19T11:39:49;41.40;;;4.80;;
39518;SDS011;25200;53.394;10.414;2023-11-19T11:50:29;34.95;;;4.57;;
39518;SDS011;25200;53.394;10.414;2023-11-19T11:58:06;33.70;;;4.78;;
39518;SDS011;25200;53.394;10.414;2023-11-19T12:00:32;30.00;;;4.53;;
39518;SDS011;25200;53.394;10.414;2023-11-19T12:03:04;25.05;;;4.30;;
39518;SDS011;25200;53.394;10.414;2023-11-19T12:05:31;36.55;;;4.78;;
39518;SDS011;25200;53.394;10.414;2023-11-19T12:08:05;27.55;;;4.45;;
39518;SDS011;25200;53.394;10.414;2023-11-19T12:10:53;29.25;;;4.25;;
39518;SDS011;25200;53.394;10.414;2023-11-19T12:13:20;22.10;;;3.60;;
39518;SDS011;25200;53.394;10.414;2023-11-19T12:18:23;24.95;;;3.75;;
39518;SDS011;25200;53.394;10.414;2023-11-19T12:20:49;17.17;;;3.35;;
39518;SDS011;25200;53.394;10.414;2023-11-19T12:23:15;21.13;;;3.70;;
39518;SDS011;25200;53.394;10.414;2023-11-19T12:25:41;22.00;;;4.13;;
39518;SDS011;25200;53.394;10.414;2023-11-19T12:28:11;28.75;;;4.05;;
39518;SDS011;25200;53.394;10.414;2023-11-19T12:30:38;25.42;;;3.45;;
39518;SDS011;25200;53.394;10.414;2023-11-19T12:33:07;26.75;;;3.78;;
39518;SDS011;25200;53.394;10.414;2023-11-19T12:35:46;27.55;;;4.35;;
39518;SDS011;25200;53.394;10.414;2023-11-19T12:38:22;21.52;;;3.78;;
39518;SDS011;25200;53.394;10.414;2023-11-19T12:41:08;27.25;;;3.80;;
39518;SDS011;25200;53.394;10.414;2023-11-19T12:43:36;26.95;;;4.50;;
39518;SDS011;25200;53.394;10.414;2023-11-19T12:46:23;23.55;;;4.03;;
39518;SDS011;25200;53.394;10.414;2023-11-19T12:48:49;25.40;;;3.78;;
39518;SDS011;25200;53.394;10.414;2023-11-19T12:51:15;20.27;;;3.75;;
39518;SDS011;25200;53.394;10.414;2023-11-19T12:53:51;19.42;;;3.55;;
39518;SDS011;25200;53.394;10.414;2023-11-19T12:56:22;27.25;;;3.72;;
39518;SDS011;25200;53.394;10.414;2023-11-19T12:58:48;20.80;;;3.70;;
39518;SDS011;25200;53.394;10.414;2023-11-19T13:01:16;27.00;;;3.92;;
39518;SDS011;25200;53.394;10.414;2023-11-19T13:03:43;17.92;;;3.60;;
39518;SDS011;25200;53.394;10.414;2023-11-19T13:06:13;17.83;;;3.50;;
39518;SDS011;25200;53.394;10.414;2023-11-19T13:11:06;20.38;;;3.58;;
39518;SDS011;25200;53.394;10.414;2023-11-19T13:13:33;27.45;;;3.97;;
39518;SDS011;25200;53.394;10.414;2023-11-19T13:16:17;22.45;;;3.55;;
39518;SDS011;25200;53.394;10.414;2023-11-19T13:18:43;21.52;;;3.55;;
39518;SDS011;25200;53.394;10.414;2023-11-19T13:21:09;22.48;;;3.78;;
39518;SDS011;25200;53.394;10.414;2023-11-19T13:23:35;24.25;;;4.38;;
39518;SDS011;25200;53.394;10.414;2023-11-19T13:26:01;26.88;;;3.70;;
39518;SDS011;25200;53.394;10.414;2023-11-19T13:28:26;23.92;;;3.58;;
39518;SDS011;25200;53.394;10.414;2023-11-19T13:30:52;24.48;;;3.85;;
39518;SDS011;25200;53.394;10.414;2023-11-19T13:33:18;25.10;;;3.85;;
39518;SDS011;25200;53.394;10.414;2023-11-19T13:35:44;22.98;;;3.88;;
39518;SDS011;25200;53.394;10.414;2023-11-19T13:38:10;28.55;;;3.97;;
39518;SDS011;25200;53.394;10.414;2023-11-19T13:40:36;29.77;;;3.95;;
39518;SDS011;25200;53.394;10.414;2023-11-19T13:43:02;22.90;;;4.13;;
39518;SDS011;25200;53.394;10.414;2023-11-19T13:45:28;19.55;;;3.47;;
39518;SDS011;25200;53.394;10.414;2023-11-19T13:47:53;24.15;;;4.05;;
39518;SDS011;25200;53.394;10.414;2023-11-19T13:50:19;18.98;;;3.85;;
39518;SDS011;25200;53.394;10.414;2023-11-19T13:52:45;21.23;;;3.65;;
39518;SDS011;25200;53.394;10.414;2023-11-19T13:55:12;19.65;;;3.13;;
39518;SDS011;25200;53.394;10.414;2023-11-19T13:57:39;21.45;;;4.18;;
39518;SDS011;25200;53.394;10.414;2023-11-19T14:00:06;19.38;;;4.25;;
39518;SDS011;25200;53.394;10.414;2023-11-19T14:02:41;25.35;;;4.18;;
39518;SDS011;25200;53.394;10.414;2023-11-19T14:05:08;27.00;;;4.13;;
39518;SDS011;25200;53.394;10.414;2023-11-19T14:07:34;25.88;;;4.20;;
39518;SDS011;25200;53.394;10.414;2023-11-19T14:10:00;27.55;;;3.88;;
39518;SDS011;25200;53.394;10.414;2023-11-19T14:12:26;23.00;;;3.47;;
39518;SDS011;25200;53.394;10.414;2023-11-19T14:14:51;20.65;;;3.40;;
39518;SDS011;25200;53.394;10.414;2023-11-19T14:17:17;21.10;;;4.18;;
39518;SDS011;25200;53.394;10.414;2023-11-19T14:19:43;29.60;;;4.50;;
39518;SDS011;25200;53.394;10.414;2023-11-19T14:22:10;21.63;;;3.90;;
39518;SDS011;25200;53.394;10.414;2023-11-19T14:24:36;21.73;;;3.72;;
39518;SDS011;25200;53.394;10.414;2023-11-19T14:27:02;20.05;;;4.00;;
39518;SDS011;25200;53.394;10.414;2023-11-19T14:29:28;22.27;;;4.47;;
39518;SDS011;25200;53.394;10.414;2023-11-19T14:31:55;22.98;;;3.95;;
39518;SDS011;25200;53.394;10.414;2023-11-19T14:34:21;27.73;;;4.18;;
39518;SDS011;25200;53.394;10.414;2023-11-19T14:36:47;22.15;;;4.43;;
39518;SDS011;25200;53.394;10.414;2023-11-19T14:39:14;24.90;;;4.00;;
39518;SDS011;25200;53.394;10.414;2023-11-19T14:41:40;25.30;;;4.32;;
39518;SDS011;25200;53.394;10.414;2023-11-19T14:44:07;24.83;;;3.97;;
39518;SDS011;25200;53.394;10.414;2023-11-19T14:46:34;23.70;;;3.63;;
39518;SDS011;25200;53.394;10.414;2023-11-19T14:49:00;29.85;;;4.45;;
39518;SDS011;25200;53.394;10.414;2023-11-19T14:51:26;26.55;;;4.38;;
39518;SDS011;25200;53.394;10.414;2023-11-19T14:53:52;18.42;;;3.42;;
39518;SDS011;25200;53.394;10.414;2023-11-19T14:56:17;28.30;;;4.30;;
39518;SDS011;25200;53.394;10.414;2023-11-19T14:58:43;27.65;;;4.60;;